Time;durP1;ratioP1;P1;durP2;ratioP2;P2;SDS_P1;SDS_P2;PMS_P1;PMS_P2;Temp;Humidity;BMP_temperature;BMP_pressure;BME280_temperature;BME280_humidity;BME280_pressure;Samples;Min_cycle;Max_cycle;Signal;HPM_P1;HPM_P2
2023/12/11 00:02:05;;;;;;;10.38;2.40;;;;;;;8.93;100.00;99247.44;6242355;28;20435;-73
2023/12/11 00:05:06;;;;;;;20.63;3.22;;;;;;;9.02;100.00;99266.94;6242156;28;20054;-75
2023/12/11 00:08:08;;;;;;;15.88;1.90;;;;;;;9.13;100.00;99267.84;6240237;28;20053;-73
2023/12/11 00:11:12;;;;;;;7.25;1.98;;;;;;;9.20;100.00;99251.69;6237137;28;20045;-74
2023/12/11 00:14:13;;;;;;;13.07;1.83;;;;;;;9.31;100.00;99262.22;6241615;28;20046;-74
2023/12/11 00:17:15;;;;;;;7.45;2.15;;;;;;;9.35;100.00;99268.91;6247118;28;20045;-73
2023/12/11 00:20:16;;;;;;;16.38;2.83;;;;;;;9.33;100.00;99276.06;6242834;28;20053;-73
2023/12/11 00:23:18;;;;;;;10.20;1.85;;;;;;;9.34;100.00;99277.75;6246206;28;20057;-74
2023/12/11 00:26:20;;;;;;;10.45;2.97;;;;;;;9.38;100.00;99280.03;6254844;28;20358;-72
2023/12/11 00:29:22;;;;;;;16.30;3.25;;;;;;;9.41;100.00;99278.97;6254402;28;20045;-72
2023/12/11 00:32:23;;;;;;;14.93;2.53;;;;;;;9.45;100.00;99285.69;6254553;28;20053;-73
2023/12/11 00:35:24;;;;;;;11.63;1.70;;;;;;;9.36;100.00;99283.72;6254385;28;20064;-72
2023/12/11 00:38:26;;;;;;;8.55;1.92;;;;;;;9.35;100.00;99306.44;6254415;28;20393;-73
2023/12/11 00:41:28;;;;;;;20.85;2.13;;;;;;;9.46;100.00;99308.31;6254290;28;20060;-72
2023/12/11 00:44:30;;;;;;;21.15;2.05;;;;;;;9.45;100.00;99296.16;6254375;28;20065;-72
2023/12/11 00:47:31;;;;;;;12.98;2.40;;;;;;;9.45;100.00;99301.41;6254254;28;20067;-72
2023/12/11 00:50:32;;;;;;;17.80;1.90;;;;;;;9.47;100.00;99307.38;6254169;28;20048;-72
2023/12/11 00:53:33;;;;;;;20.63;2.35;;;;;;;9.53;100.00;99314.78;6254001;28;20056;-71
2023/12/11 00:56:36;;;;;;;10.07;1.70;;;;;;;9.53;100.00;99306.09;6254037;28;20056;-73
2023/12/11 00:59:39;;;;;;;11.38;1.23;;;;;;;9.47;100.00;99319.66;6246046;28;20430;-71
2023/12/11 01:02:42;;;;;;;10.13;2.03;;;;;;;9.49;100.00;99313.34;6252064;28;20191;-73
2023/12/11 01:05:43;;;;;;;11.68;2.45;;;;;;;9.46;100.00;99316.19;6253762;28;20046;-71
2023/12/11 01:08:45;;;;;;;11.57;1.50;;;;;;;9.39;100.00;99322.81;6253247;28;20049;-71
2023/12/11 01:11:47;;;;;;;9.77;1.33;;;;;;;9.37;100.00;99324.72;6253903;28;20357;-72
2023/12/11 01:14:48;;;;;;;11.35;1.75;;;;;;;9.33;100.00;99328.50;6276993;22;20049;-72
2023/12/11 01:17:50;;;;;;;21.10;2.03;;;;;;;9.36;100.00;99331.75;6253598;28;20053;-71
2023/12/11 01:20:51;;;;;;;9.70;2.10;;;;;;;9.47;100.00;99344.09;6253345;28;20045;-71
2023/12/11 01:23:53;;;;;;;16.52;2.03;;;;;;;9.41;100.00;99360.25;6253291;28;20053;-72
2023/12/11 01:26:55;;;;;;;15.45;1.52;;;;;;;9.48;100.00;99355.41;6253005;28;20061;-72
2023/12/11 01:29:57;;;;;;;9.27;1.60;;;;;;;9.50;100.00;99364.03;6252856;28;20049;-71
2023/12/11 01:32:58;;;;;;;20.85;2.92;;;;;;;9.45;100.00;99358.25;6252966;28;20056;-71
2023/12/11 01:35:59;;;;;;;12.73;1.60;;;;;;;9.36;100.00;99360.59;6252870;28;20049;-72
2023/12/11 01:39:00;;;;;;;19.08;2.30;;;;;;;9.23;100.00;99356.31;6253145;28;20354;-71
2023/12/11 01:42:03;;;;;;;19.55;2.65;;;;;;;9.28;100.00;99359.44;6252850;28;20056;-71
2023/12/11 01:45:05;;;;;;;21.23;2.10;;;;;;;9.27;100.00;99374.34;6252767;28;20049;-71
2023/12/11 01:48:07;;;;;;;14.10;2.47;;;;;;;9.28;100.00;99367.31;6252923;28;20439;-71
2023/12/11 01:51:10;;;;;;;29.27;3.22;;;;;;;9.29;100.00;99376.84;6252667;28;20046;-72
2023/12/11 01:54:11;;;;;;;16.73;2.97;;;;;;;9.29;100.00;99388.16;6252370;28;20332;-71
2023/12/11 01:57:14;;;;;;;17.50;2.63;;;;;;;9.29;100.00;99382.09;6252842;28;20057;-71
2023/12/11 02:00:16;;;;;;;20.42;2.25;;;;;;;9.33;100.00;99389.63;6252410;28;20041;-71
2023/12/11 02:03:19;;;;;;;19.08;2.30;;;;;;;9.24;100.00;99389.44;6252424;28;20052;-71
2023/12/11 02:06:20;;;;;;;16.08;2.17;;;;;;;9.22;100.00;99389.56;6252016;28;20358;-71
2023/12/11 02:09:22;;;;;;;22.30;3.13;;;;;;;9.25;100.00;99397.19;6257613;28;20042;-72
2023/12/11 02:12:24;;;;;;;14.82;1.90;;;;;;;9.27;100.00;99397.94;6272400;28;20476;-71
2023/12/11 02:15:39;;;;;;;20.08;2.33;;;;;;;9.30;100.00;99397.69;6276552;28;20052;-72
2023/12/11 02:18:40;;;;;;;15.32;2.00;;;;;;;9.32;100.00;99395.00;6261319;28;20445;-71
2023/12/11 02:21:42;;;;;;;20.98;2.78;;;;;;;9.28;100.00;99396.97;6274999;28;20049;-71
2023/12/11 02:24:48;;;;;;;17.80;2.22;;;;;;;9.28;100.00;99398.78;6276594;28;20060;-71
2023/12/11 02:27:51;;;;;;;19.42;2.15;;;;;;;9.18;100.00;99403.81;6276540;28;20349;-72
2023/12/11 02:30:52;;;;;;;12.55;2.28;;;;;;;9.25;100.00;99396.34;6276412;28;20049;-72
2023/12/11 02:33:53;;;;;;;20.52;2.08;;;;;;;9.29;100.00;99396.03;6276183;28;20064;-72
2023/12/11 02:36:55;;;;;;;18.80;2.53;;;;;;;9.28;100.00;99396.16;6276366;28;20049;-72
2023/12/11 02:39:56;;;;;;;10.02;1.90;;;;;;;9.37;100.00;99387.63;6276474;28;20437;-71
2023/12/11 02:42:59;;;;;;;15.32;2.38;;;;;;;9.35;100.00;99381.66;6276456;28;20052;-71
2023/12/11 02:46:00;;;;;;;19.23;2.63;;;;;;;9.35;100.00;99392.97;6275969;28;20056;-71
2023/12/11 02:49:01;;;;;;;19.60;2.10;;;;;;;9.29;100.00;99376.84;6276311;28;20052;-71
2023/12/11 02:52:03;;;;;;;29.05;3.25;;;;;;;9.31;100.00;99383.69;6275930;28;20048;-71
2023/12/11 02:55:05;;;;;;;19.92;3.15;;;;;;;9.33;100.00;99383.56;6276084;28;20437;-71
2023/12/11 02:58:08;;;;;;;19.77;2.65;;;;;;;9.28;100.00;99386.50;6275942;28;20048;-72
2023/12/11 03:01:09;;;;;;;14.95;2.30;;;;;;;9.25;100.00;99384.09;6275752;28;20049;-72
2023/12/11 03:04:10;;;;;;;13.27;2.25;;;;;;;9.21;100.00;99363.44;6274963;28;20049;-72
2023/12/11 03:07:13;;;;;;;17.08;2.72;;;;;;;9.16;100.00;99371.63;6249420;28;20045;-71
2023/12/11 03:10:15;;;;;;;12.00;1.65;;;;;;;9.18;100.00;99364.50;6250954;28;20045;-72
2023/12/11 03:13:18;;;;;;;19.27;2.53;;;;;;;9.20;100.00;99364.38;6250359;28;20041;-71
2023/12/11 03:16:19;;;;;;;18.42;2.55;;;;;;;9.20;100.00;99359.13;6246609;28;20330;-72
2023/12/11 03:19:20;;;;;;;17.35;2.85;;;;;;;9.20;100.00;99364.38;6253607;28;20052;-71
2023/12/11 03:22:24;;;;;;;18.75;2.55;;;;;;;9.19;100.00;99360.09;6258821;28;20466;-71
2023/12/11 03:25:26;;;;;;;19.95;2.95;;;;;;;9.23;100.00;99364.19;6249137;28;20044;-71
2023/12/11 03:28:28;;;;;;;19.08;2.60;;;;;;;9.15;100.00;99376.03;6240244;28;20049;-71
2023/12/11 03:31:30;;;;;;;7.40;1.70;;;;;;;9.14;100.00;99352.56;6232145;28;20064;-72
2023/12/11 03:34:31;;;;;;;14.52;1.98;;;;;;;9.12;100.00;99347.41;6241730;28;20069;-71
2023/12/11 03:37:32;;;;;;;15.93;2.05;;;;;;;9.09;100.00;99363.34;6248868;28;20441;-72
2023/12/11 03:40:34;;;;;;;9.95;2.42;;;;;;;9.07;100.00;99361.78;6258483;28;20128;-71
2023/12/11 03:43:36;;;;;;;17.02;1.95;;;;;;;9.07;100.00;99359.16;6243874;28;20043;-71
2023/12/11 03:46:37;;;;;;;15.95;2.75;;;;;;;9.08;100.00;99347.72;6240206;28;20052;-72
2023/12/11 03:49:39;;;;;;;22.52;2.00;;;;;;;9.13;100.00;99351.72;6237149;28;20348;-72
2023/12/11 03:52:40;;;;;;;12.23;1.90;;;;;;;9.04;100.00;99348.91;6268304;28;20117;-71
2023/12/11 03:55:41;;;;;;;17.05;2.38;;;;;;;9.02;100.00;99335.88;6280197;28;20056;-72
2023/12/11 03:58:44;;;;;;;27.95;3.47;;;;;;;9.02;100.00;99342.91;6280207;28;20442;-72
2023/12/11 04:01:45;;;;;;;15.73;2.08;;;;;;;8.98;100.00;99336.22;6272250;28;20045;-71
2023/12/11 04:04:47;;;;;;;17.63;2.50;;;;;;;8.97;100.00;99335.38;6271291;28;20113;-71
2023/12/11 04:07:48;;;;;;;23.83;2.30;;;;;;;8.96;100.00;99338.09;6279791;28;20045;-72
2023/12/11 04:10:49;;;;;;;17.52;2.25;;;;;;;8.97;100.00;99329.28;6279902;28;20045;-72
2023/12/11 04:13:52;;;;;;;18.58;3.20;;;;;;;8.99;100.00;99335.25;6279371;28;20072;-72
2023/12/11 04:16:53;;;;;;;12.40;2.30;;;;;;;8.89;100.00;99335.88;6279881;28;20457;-73
2023/12/11 04:19:55;;;;;;;20.65;2.80;;;;;;;8.94;100.00;99338.19;6279499;28;20448;-71
2023/12/11 04:22:56;;;;;;;30.15;3.33;;;;;;;9.00;100.00;99340.41;6264506;28;20429;-71
2023/12/11 04:25:59;;;;;;;18.73;2.88;;;;;;;8.98;100.00;99342.28;6263062;28;20372;-71
2023/12/11 04:29:01;;;;;;;27.15;3.47;;;;;;;8.88;100.00;99334.22;6263844;28;20068;-71
2023/12/11 04:32:03;;;;;;;14.48;2.38;;;;;;;8.82;100.00;99329.41;6271346;28;20361;-70
2023/12/11 04:35:05;;;;;;;12.55;2.70;;;;;;;8.77;100.00;99323.66;6271850;28;20057;-71
2023/12/11 04:38:06;;;;;;;32.17;3.45;;;;;;;8.67;100.00;99324.38;6270396;28;20057;-70
2023/12/11 04:41:08;;;;;;;18.98;3.05;;;;;;;8.59;100.00;99328.38;6279041;28;20072;-71
2023/12/11 04:44:10;;;;;;;20.27;3.17;;;;;;;8.52;100.00;99329.72;6279130;28;20049;-70
2023/12/11 04:47:12;;;;;;;18.63;3.55;;;;;;;8.49;100.00;99337.75;6279060;28;20060;-70
2023/12/11 04:50:13;;;;;;;28.08;3.35;;;;;;;8.45;100.00;99320.63;6269954;28;20353;-70
2023/12/11 04:53:14;;;;;;;12.85;3.25;;;;;;;8.43;100.00;99326.88;6272755;28;20045;-71
2023/12/11 04:56:16;;;;;;;19.35;3.40;;;;;;;8.45;100.00;99299.69;6278748;28;20080;-70
2023/12/11 04:59:19;;;;;;;20.40;2.38;;;;;;;8.51;100.00;99301.88;6278828;28;20135;-70
2023/12/11 05:02:20;;;;;;;18.33;2.72;;;;;;;8.35;100.00;99307.25;6270250;28;20052;-70
2023/12/11 05:05:21;;;;;;;18.30;3.80;;;;;;;8.35;100.00;99312.47;6270185;28;20056;-70
2023/12/11 05:08:23;;;;;;;27.13;3.95;;;;;;;8.28;100.00;99300.78;6271755;28;20057;-70
2023/12/11 05:11:24;;;;;;;24.92;2.97;;;;;;;8.28;100.00;99300.78;6266704;28;20052;-70
2023/12/11 05:14:27;;;;;;;14.15;3.28;;;;;;;8.24;100.00;99304.53;6264787;28;20060;-71
2023/12/11 05:17:28;;;;;;;18.90;2.72;;;;;;;8.26;100.00;99300.03;6261645;28;20598;-71
2023/12/11 05:20:30;;;;;;;19.92;2.75;;;;;;;8.47;100.00;99304.78;6265580;28;20103;-70
2023/12/11 05:23:31;;;;;;;11.38;3.60;;;;;;;8.31;100.00;99300.56;6274215;28;20060;-70
2023/12/11 05:26:32;;;;;;;17.55;3.45;;;;;;;8.31;100.00;99292.72;6278209;28;20056;-71
2023/12/11 05:29:35;;;;;;;19.17;2.28;;;;;;;8.28;100.00;99289.47;6277877;28;20460;-70
2023/12/11 05:32:38;;;;;;;23.50;3.47;;;;;;;8.26;100.00;99281.69;6267920;28;20048;-70
2023/12/11 05:35:39;;;;;;;18.38;3.20;;;;;;;8.30;100.00;99288.41;6275083;28;20198;-70
2023/12/11 05:38:41;;;;;;;13.07;2.10;;;;;;;8.37;100.00;99274.00;6277849;28;20438;-71
2023/12/11 05:41:42;;;;;;;21.13;3.55;;;;;;;8.38;100.00;99278.28;6277781;28;20041;-71
2023/12/11 05:44:45;;;;;;;15.63;2.75;;;;;;;8.33;100.00;99266.44;6277339;28;20052;-71
2023/12/11 05:47:46;;;;;;;28.35;2.83;;;;;;;8.37;100.00;99279.25;6277530;28;20060;-71
2023/12/11 05:50:47;;;;;;;17.58;2.78;;;;;;;8.32;100.00;99270.84;6277632;28;20049;-71
2023/12/11 05:53:49;;;;;;;21.77;3.10;;;;;;;8.34;100.00;99275.97;6277192;28;20487;-70
2023/12/11 05:56:50;;;;;;;24.10;4.10;;;;;;;8.43;100.00;99277.97;6277330;28;20068;-71
2023/12/11 05:59:53;;;;;;;28.00;4.55;;;;;;;8.47;100.00;99276.00;6273799;28;20049;-71
2023/12/11 06:02:54;;;;;;;17.80;2.95;;;;;;;8.47;100.00;99274.22;6268593;28;20438;-70
2023/12/11 06:05:58;;;;;;;9.68;3.08;;;;;;;8.42;100.00;99267.63;6263029;28;20418;-70
2023/12/11 06:08:59;;;;;;;19.45;3.20;;;;;;;8.33;100.00;99262.03;6227578;28;20050;-69
2023/12/11 06:12:00;;;;;;;11.52;2.88;;;;;;;8.38;100.00;99275.69;6227538;28;20053;-69
2023/12/11 06:15:03;;;;;;;18.95;3.42;;;;;;;8.40;100.00;99275.56;6227148;28;20149;-69
2023/12/11 06:18:05;;;;;;;28.15;3.83;;;;;;;8.39;100.00;99268.66;6227817;28;20050;-70
2023/12/11 06:21:06;;;;;;;24.17;3.92;;;;;;;8.42;100.00;99268.47;6227366;28;20057;-71
2023/12/11 06:24:08;;;;;;;11.75;2.95;;;;;;;8.42;100.00;99267.63;6227400;28;20046;-70
2023/12/11 06:27:10;;;;;;;21.95;4.53;;;;;;;8.45;100.00;99272.63;6227396;28;20050;-71
2023/12/11 06:30:13;;;;;;;7.57;1.58;;;;;;;8.42;100.00;99259.78;6227131;28;20046;-71
2023/12/11 06:33:15;;;;;;;16.67;3.28;;;;;;;8.45;100.00;99259.53;6227043;28;20057;-71
2023/12/11 06:36:16;;;;;;;19.23;2.50;;;;;;;8.29;100.00;99265.81;6226912;28;20064;-71
2023/12/11 06:39:19;;;;;;;12.40;2.67;;;;;;;8.36;100.00;99266.25;6227403;28;20050;-71
2023/12/11 06:42:20;;;;;;;14.23;2.40;;;;;;;8.37;100.00;99271.38;6226786;28;20050;-73
2023/12/11 06:45:23;;;;;;;22.92;2.95;;;;;;;8.44;100.00;99268.34;6226689;28;20049;-71
2023/12/11 06:48:24;;;;;;;24.23;2.63;;;;;;;8.45;100.00;99268.25;6226812;28;20060;-68
2023/12/11 06:51:26;;;;;;;14.45;2.03;;;;;;;8.41;100.00;99264.19;6226563;28;20367;-68
2023/12/11 06:54:27;;;;;;;6.45;1.67;;;;;;;8.33;100.00;99261.19;6226538;28;20053;-69
2023/12/11 06:57:28;;;;;;;16.42;2.15;;;;;;;8.35;100.00;99268.00;6227050;28;20061;-69
2023/12/11 07:00:31;;;;;;;12.95;2.05;;;;;;;8.31;100.00;99263.94;6226675;28;20049;-68
2023/12/11 07:03:32;;;;;;;19.17;2.35;;;;;;;8.41;100.00;99260.72;6234562;28;20050;-68
2023/12/11 07:06:34;;;;;;;12.18;2.03;;;;;;;8.44;100.00;99263.94;6236643;28;20046;-68
2023/12/11 07:09:35;;;;;;;11.27;1.88;;;;;;;8.40;100.00;99257.25;6226609;28;20050;-71
2023/12/11 07:12:40;;;;;;;18.67;1.98;;;;;;;8.36;100.00;99251.41;6242138;23;20516;-68
2023/12/11 07:15:43;;;;;;;10.02;1.52;;;;;;;8.36;100.00;99253.16;6279353;28;20082;-68
2023/12/11 07:18:44;;;;;;;12.98;1.63;;;;;;;8.36;100.00;99268.84;6289032;28;20204;-69
2023/12/11 07:21:45;;;;;;;9.73;1.65;;;;;;;8.43;100.00;99267.50;6285271;28;20041;-69
2023/12/11 07:24:47;;;;;;;8.43;1.80;;;;;;;8.42;100.00;99270.25;6290589;28;20041;-69
2023/12/11 07:27:48;;;;;;;12.43;1.60;;;;;;;8.42;100.00;99260.59;6286769;28;20055;-68
2023/12/11 07:30:51;;;;;;;8.35;1.98;;;;;;;8.34;100.00;99266.31;6285768;28;20322;-69
2023/12/11 07:33:52;;;;;;;11.52;1.35;;;;;;;8.34;100.00;99263.69;6289674;28;20041;-69
2023/12/11 07:36:54;;;;;;;4.90;1.92;;;;;;;8.38;100.00;99259.97;6281761;28;20048;-68
2023/12/11 07:39:56;;;;;;;8.07;1.50;;;;;;;8.41;100.00;99268.56;6283705;28;20060;-70
2023/12/11 07:42:57;;;;;;;4.40;1.08;;;;;;;8.35;100.00;99268.00;6283646;28;20048;-70
2023/12/11 07:46:00;;;;;;;9.50;2.20;;;;;;;8.33;100.00;99264.66;6299257;28;20342;-68
2023/12/11 07:49:02;;;;;;;4.60;1.42;;;;;;;8.33;100.00;99269.88;6290553;28;20052;-69
2023/12/11 07:52:03;;;;;;;11.13;1.88;;;;;;;8.36;100.00;99271.47;6281593;28;20051;-69
2023/12/11 07:55:05;;;;;;;4.80;1.35;;;;;;;8.39;100.00;99263.41;6288057;28;20052;-68
2023/12/11 07:58:07;;;;;;;16.00;1.92;;;;;;;8.52;100.00;99276.53;6283793;28;20365;-68
2023/12/11 08:01:10;;;;;;;9.30;2.28;;;;;;;8.50;100.00;99274.00;6291158;28;20334;-68
2023/12/11 08:04:12;;;;;;;11.32;1.20;;;;;;;8.51;100.00;99259.97;6293357;28;20057;-69
2023/12/11 08:07:14;;;;;;;9.43;1.98;;;;;;;8.51;100.00;99262.59;6282152;28;20467;-69
2023/12/11 08:10:16;;;;;;;5.00;1.23;;;;;;;8.50;100.00;99262.72;6275465;28;20126;-69
2023/12/11 08:13:17;;;;;;;10.85;1.63;;;;;;;8.50;100.00;99254.84;6282971;28;20331;-69
2023/12/11 08:16:20;;;;;;;10.73;1.70;;;;;;;8.49;100.00;99255.78;6274688;28;20056;-69
2023/12/11 08:19:21;;;;;;;7.82;1.83;;;;;;;8.49;100.00;99254.00;6285359;28;20052;-69
2023/12/11 08:22:23;;;;;;;13.88;1.55;;;;;;;8.55;100.00;99263.22;6286162;28;20037;-69
2023/12/11 08:25:24;;;;;;;10.30;1.60;;;;;;;8.57;100.00;99263.94;6285676;28;20080;-68
2023/12/11 08:28:25;;;;;;;7.25;1.50;;;;;;;8.60;100.00;99261.97;6290834;28;20049;-68
2023/12/11 08:31:28;;;;;;;36.65;8.63;;;;;;;8.60;100.00;99259.34;6285088;28;20037;-70
2023/12/11 08:34:30;;;;;;;9.15;1.58;;;;;;;8.58;100.00;99256.00;6277890;28;20044;-68
2023/12/11 08:37:31;;;;;;;4.28;1.33;;;;;;;8.54;100.00;99264.16;6284252;28;20048;-68
2023/12/11 08:40:33;;;;;;;12.93;2.13;;;;;;;8.71;100.00;99255.13;6291842;28;20076;-68
2023/12/11 08:43:34;;;;;;;7.45;1.58;;;;;;;8.72;100.00;99257.66;6291439;28;20044;-68
2023/12/11 08:46:37;;;;;;;6.75;1.50;;;;;;;8.70;100.00;99253.47;6296782;28;20045;-69
2023/12/11 08:49:38;;;;;;;7.95;1.52;;;;;;;8.68;100.00;99252.75;6292160;28;20049;-71
2023/12/11 08:52:42;;;;;;;14.63;2.05;;;;;;;8.68;100.00;99247.50;6303329;28;20048;-70
2023/12/11 08:55:44;;;;;;;6.28;2.10;;;;;;;8.73;100.00;99250.66;6302810;28;20044;-68
2023/12/11 08:58:46;;;;;;;11.05;2.45;;;;;;;8.72;100.00;99246.31;6289759;28;20457;-69
2023/12/11 09:01:49;;;;;;;15.27;2.03;;;;;;;8.73;100.00;99242.78;6288932;28;20164;-69
2023/12/11 09:04:50;;;;;;;10.00;1.48;;;;;;;8.74;100.00;99250.53;6301677;28;20051;-68
2023/12/11 09:07:51;;;;;;;20.98;2.30;;;;;;;8.78;100.00;99245.91;6287267;28;20056;-69
2023/12/11 09:10:53;;;;;;;4.68;1.77;;;;;;;8.85;100.00;99252.38;6298553;28;20059;-69
2023/12/11 09:13:54;;;;;;;17.27;4.40;;;;;;;8.86;100.00;99244.44;6291865;28;20365;-69
2023/12/11 09:16:57;;;;;;;8.73;1.45;;;;;;;8.83;100.00;99236.78;6287923;28;20048;-69
2023/12/11 09:19:59;;;;;;;13.45;1.60;;;;;;;8.85;100.00;99239.28;6294389;28;20423;-68
2023/12/11 09:23:00;;;;;;;19.75;2.40;;;;;;;8.88;100.00;99245.16;6287353;28;20052;-69
2023/12/11 09:26:01;;;;;;;6.22;1.65;;;;;;;8.82;100.00;99234.28;6302618;28;20056;-68
2023/12/11 09:29:03;;;;;;;8.68;2.00;;;;;;;8.80;100.00;99241.41;6302625;28;20349;-69
2023/12/11 09:32:06;;;;;;;12.57;1.95;;;;;;;8.77;100.00;99242.47;6291138;28;20045;-68
2023/12/11 09:35:09;;;;;;;10.70;1.90;;;;;;;8.75;100.00;99233.84;6293578;28;20499;-68
2023/12/11 09:38:11;;;;;;;12.10;2.42;;;;;;;8.69;100.00;99244.78;6302377;28;20047;-68
2023/12/11 09:41:13;;;;;;;19.85;2.55;;;;;;;8.64;100.00;99237.25;6302453;28;20063;-69
2023/12/11 09:44:14;;;;;;;8.45;2.08;;;;;;;8.62;100.00;99240.91;6287196;28;20045;-68
2023/12/11 09:47:23;;;;;;;8.13;1.50;;;;;;;8.57;100.00;99235.16;6293971;28;20055;-69
2023/12/11 09:50:25;;;;;;;14.38;2.35;;;;;;;8.53;100.00;99244.16;6296146;28;20044;-68
2023/12/11 09:53:26;;;;;;;10.13;2.72;;;;;;;8.52;100.00;99243.31;6293651;28;20052;-70
2023/12/11 09:56:28;;;;;;;10.57;1.73;;;;;;;8.57;100.00;99237.75;6302447;28;20130;-69
2023/12/11 09:59:30;;;;;;;6.75;2.25;;;;;;;8.58;100.00;99232.44;6302008;28;20127;-69
2023/12/11 10:02:33;;;;;;;8.48;2.22;;;;;;;8.57;100.00;99228.13;6295156;28;20380;-69
2023/12/11 10:05:36;;;;;;;14.70;2.08;;;;;;;8.53;100.00;99216.19;6293117;28;20361;-69
2023/12/11 10:08:41;;;;;;;8.60;2.35;;;;;;;8.53;100.00;99217.97;6301707;28;20052;-69
2023/12/11 10:11:57;;;;;;;9.02;3.03;;;;;;;8.58;100.00;99210.63;6301658;28;20137;-69
2023/12/11 10:15:02;;;;;;;18.55;2.50;;;;;;;8.56;100.00;99202.88;6288140;28;20045;-69
2023/12/11 10:18:09;;;;;;;9.20;2.55;;;;;;;8.57;100.00;99204.56;6276765;28;20060;-68
2023/12/11 10:21:11;;;;;;;14.60;2.55;;;;;;;8.57;100.00;99204.56;6287517;28;20566;-69
2023/12/11 10:24:14;;;;;;;13.63;2.00;;;;;;;8.57;100.00;99203.72;6285653;28;20053;-68
2023/12/11 10:27:22;;;;;;;9.52;2.30;;;;;;;8.56;100.00;99192.41;6289443;28;20072;-67
2023/12/11 10:30:24;;;;;;;9.60;1.85;;;;;;;8.55;100.00;99184.69;6301245;28;20051;-68
2023/12/11 10:33:30;;;;;;;9.48;2.13;;;;;;;8.57;100.00;99195.88;6301203;28;20051;-68
2023/12/11 10:36:31;;;;;;;17.15;3.00;;;;;;;8.59;100.00;99188.75;6301044;28;20142;-67
2023/12/11 10:39:33;;;;;;;10.05;2.30;;;;;;;8.55;100.00;99185.50;6300927;28;20060;-68
2023/12/11 10:42:35;;;;;;;10.20;2.42;;;;;;;8.59;100.00;99186.16;6300900;28;20055;-68
2023/12/11 10:45:36;;;;;;;6.50;2.33;;;;;;;8.56;100.00;99188.97;6300684;28;20048;-69
2023/12/11 10:48:39;;;;;;;9.48;1.95;;;;;;;8.60;100.00;99186.03;6300871;28;20444;-67
2023/12/11 10:51:41;;;;;;;13.18;2.50;;;;;;;8.63;100.00;99188.44;6287401;28;20346;-67
2023/12/11 10:54:43;;;;;;;8.60;1.50;;;;;;;8.66;100.00;99187.38;6275919;28;20048;-68
2023/12/11 10:57:46;;;;;;;7.80;2.05;;;;;;;8.69;100.00;99189.78;6275710;28;20148;-68
2023/12/11 11:00:48;;;;;;;2.33;1.30;;;;;;;8.68;100.00;99189.91;6275712;28;20087;-67
2023/12/11 11:03:51;;;;;;;6.68;1.33;;;;;;;8.70;100.00;99186.22;6275304;28;20052;-68
2023/12/11 11:06:56;;;;;;;6.10;1.65;;;;;;;8.70;100.00;99186.22;6275438;28;20053;-66
2023/12/11 11:10:05;;;;;;;2.03;0.90;;;;;;;8.68;100.00;99182.03;6275492;28;20477;-68
2023/12/11 11:13:09;;;;;;;;;;;;;;;8.70;100.00;99201.09;6277799;28;20045;-68
2023/12/11 11:16:10;;;;;;;2.55;1.20;;;;;;;8.73;100.00;99193.84;6300351;28;19927;-69
2023/12/11 11:19:13;;;;;;;3.55;1.83;;;;;;;8.69;100.00;99197.63;6300207;28;20064;-68
2023/12/11 11:22:21;;;;;;;2.28;0.73;;;;;;;8.70;100.00;99199.31;6300262;28;20426;-67
2023/12/11 11:25:33;;;;;;;1.90;1.00;;;;;;;8.76;100.00;99198.84;6299809;28;20049;-69
2023/12/11 11:28:40;;;;;;;9.57;0.98;;;;;;;8.77;100.00;99202.34;6300088;28;20419;-68
2023/12/11 11:31:49;;;;;;;5.30;1.35;;;;;;;8.74;100.00;99211.25;6291962;28;20052;-68
2023/12/11 11:34:52;;;;;;;1.90;0.85;;;;;;;8.76;100.00;99211.97;6282035;28;20127;-67
2023/12/11 11:37:53;;;;;;;1.13;0.52;;;;;;;8.66;100.00;99212.72;6289069;28;20048;-67
2023/12/11 11:40:55;;;;;;;1.00;0.47;;;;;;;8.70;100.00;99216.81;6298271;28;20052;-67
2023/12/11 11:44:04;;;;;;;5.90;1.13;;;;;;;8.70;100.00;99215.00;6291236;28;20064;-68
2023/12/11 11:47:05;;;;;;;4.68;0.77;;;;;;;8.72;100.00;99217.50;6299954;28;20056;-69
2023/12/11 11:50:10;;;;;;;2.63;0.88;;;;;;;8.61;100.00;99218.28;6299197;28;20053;-68
2023/12/11 11:53:14;;;;;;;1.98;0.82;;;;;;;8.66;100.00;99223.19;6274821;28;20067;-68
2023/12/11 11:56:16;;;;;;;1.67;0.80;;;;;;;8.69;100.00;99226.44;6274902;28;20468;-68
2023/12/11 11:59:17;;;;;;;1.35;0.68;;;;;;;8.77;100.00;99232.00;6274560;28;20060;-68
2023/12/11 12:02:22;;;;;;;0.63;0.52;;;;;;;8.65;100.00;99232.84;6274570;28;20068;-69
2023/12/11 12:05:24;;;;;;;1.08;0.60;;;;;;;8.64;100.00;99237.25;6276922;28;20048;-68
2023/12/11 12:08:26;;;;;;;3.55;0.52;;;;;;;8.66;100.00;99250.22;6291048;28;20053;-68
2023/12/11 12:11:29;;;;;;;2.42;0.90;;;;;;;8.66;100.00;99252.00;6298334;28;20075;-68
2023/12/11 12:14:31;;;;;;;0.90;0.80;;;;;;;8.70;100.00;99258.69;6292414;28;20452;-69
2023/12/11 12:17:32;;;;;;;4.95;1.40;;;;;;;8.73;100.00;99256.72;6295968;28;20428;-69
2023/12/11 12:20:35;;;;;;;3.80;1.25;;;;;;;8.73;100.00;99261.94;6304485;28;20052;-68
2023/12/11 12:23:37;;;;;;;3.13;1.35;;;;;;;8.76;100.00;99259.09;6304259;28;20055;-68
2023/12/11 12:26:39;;;;;;;1.38;0.90;;;;;;;8.77;100.00;99278.31;6304339;28;20048;-68
2023/12/11 12:29:42;;;;;;;8.70;1.00;;;;;;;8.83;100.00;99276.06;6289141;28;20045;-70
2023/12/11 12:32:44;;;;;;;5.07;1.58;;;;;;;8.80;100.00;99280.69;6300697;28;20209;-68
2023/12/11 12:35:48;;;;;;;3.40;1.17;;;;;;;8.91;100.00;99285.19;6289899;28;20079;-71
2023/12/11 12:38:51;;;;;;;4.70;1.50;;;;;;;8.84;100.00;99282.97;6293203;28;20459;-69
2023/12/11 12:41:52;;;;;;;4.88;1.70;;;;;;;8.81;100.00;99295.44;6293387;28;20053;-68
2023/12/11 12:44:54;;;;;;;9.30;2.00;;;;;;;8.82;100.00;99302.38;6295316;28;20056;-68
2023/12/11 12:47:55;;;;;;;3.20;1.83;;;;;;;8.83;100.00;99314.53;6303819;28;20045;-68
2023/12/11 12:51:10;;;;;;;2.67;1.55;;;;;;;8.90;100.00;99318.38;6293566;28;20049;-68
2023/12/11 12:54:12;;;;;;;3.05;1.50;;;;;;;8.97;100.00;99322.28;6278517;28;20045;-69
2023/12/11 12:57:14;;;;;;;3.03;1.85;;;;;;;8.94;100.00;99327.72;6278981;28;20138;-68
2023/12/11 13:00:20;;;;;;;5.97;1.50;;;;;;;8.89;100.00;99335.88;6287848;28;20053;-68
2023/12/11 13:03:23;;;;;;;1.58;1.00;;;;;;;8.82;100.00;99329.41;6288349;28;20040;-67
2023/12/11 13:06:27;;;;;;;0.95;0.85;;;;;;;8.94;100.00;99345.22;6285915;28;20045;-68
2023/12/11 13:09:30;;;;;;;2.38;1.42;;;;;;;8.98;100.00;99351.94;6288855;28;20059;-67
2023/12/11 13:12:31;;;;;;;2.58;0.95;;;;;;;8.85;100.00;99351.94;6290082;28;20048;-67
2023/12/11 13:15:32;;;;;;;0.65;0.65;;;;;;;8.87;100.00;99350.06;6289797;28;20455;-68
2023/12/11 13:18:36;;;;;;;0.60;0.60;;;;;;;8.83;100.00;99367.75;6290255;28;20048;-67
2023/12/11 13:21:38;;;;;;;4.03;0.60;;;;;;;8.80;100.00;99373.19;6286029;28;20079;-67
2023/12/11 13:24:40;;;;;;;2.53;0.80;;;;;;;8.76;100.00;99366.50;6289282;28;20041;-67
2023/12/11 13:27:46;;;;;;;1.30;0.60;;;;;;;8.67;100.00;99374.97;6286556;28;20437;-68
2023/12/11 13:30:47;;;;;;;3.30;0.63;;;;;;;8.72;100.00;99385.13;6283307;28;20131;-68
2023/12/11 13:33:49;;;;;;;0.70;0.40;;;;;;;8.66;100.00;99394.25;6284784;28;20059;-71
2023/12/11 13:36:52;;;;;;;4.35;0.85;;;;;;;8.78;100.00;99405.69;6285967;28;20048;-70
2023/12/11 13:39:53;;;;;;;1.65;0.80;;;;;;;8.77;100.00;99409.25;6300911;22;20053;-72
2023/12/11 13:42:54;;;;;;;5.95;0.75;;;;;;;8.75;100.00;99424.22;6273428;28;20047;-73
2023/12/11 13:45:56;;;;;;;1.85;0.95;;;;;;;8.71;100.00;99434.06;6270661;28;20052;-72
2023/12/11 13:48:57;;;;;;;6.28;1.38;;;;;;;8.71;100.00;99426.19;6266497;28;20048;-75
2023/12/11 13:52:00;;;;;;;5.13;1.30;;;;;;;8.78;100.00;99437.97;6266199;28;20596;-71
2023/12/11 13:55:02;;;;;;;5.72;0.82;;;;;;;8.80;100.00;99449.16;6270623;28;20057;-72
2023/12/11 13:58:03;;;;;;;3.95;0.93;;;;;;;8.87;100.00;99452.22;6276221;28;20384;-75
2023/12/11 14:01:05;;;;;;;3.15;0.90;;;;;;;8.89;100.00;99459.03;6271950;28;20061;-74
2023/12/11 14:04:06;;;;;;;2.88;1.23;;;;;;;8.88;100.00;99459.97;6276806;28;20056;-74
2023/12/11 14:07:08;;;;;;;2.10;0.80;;;;;;;8.87;100.00;99470.56;6275683;28;20057;-72
2023/12/11 14:10:10;;;;;;;6.45;0.80;;;;;;;8.84;100.00;99478.63;6264844;28;20438;-71
2023/12/11 14:13:14;;;;;;;2.50;0.90;;;;;;;8.76;100.00;99479.13;6276194;28;20343;-72